Time;durP1;ratioP1;P1;durP2;ratioP2;P2;SDS_P1;SDS_P2;PMS_P1;PMS_P2;Temp;Humidity;BMP_temperature;BMP_pressure;BME280_temperature;BME280_humidity;BME280_pressure;Samples;Min_cycle;Max_cycle;Signal;HPM_P1;HPM_P2
2023/06/22 00:01:00;;;;;;;24.40;13.40;;;;;;;22.12;79.36;100490.38;110190;1278;22274;-83
2023/06/22 00:03:37;;;;;;;20.70;12.70;;;;;;;22.11;79.43;100488.54;108225;1271;22516;-82
2023/06/22 00:06:08;;;;;;;18.90;11.70;;;;;;;22.12;79.48;100487.16;108193;1278;22538;-82
2023/06/22 00:08:39;;;;;;;19.70;11.90;;;;;;;22.13;79.46;100485.34;108235;1272;22530;-82
2023/06/22 00:11:11;;;;;;;22.60;11.90;;;;;;;22.15;79.68;100482.02;108240;1272;22569;-82
2023/06/22 00:13:42;;;;;;;19.70;12.10;;;;;;;22.17;79.74;100485.91;108246;1271;22543;-82
2023/06/22 00:16:13;;;;;;;20.90;12.00;;;;;;;22.18;79.67;100488.17;108211;1271;24217;-82
2023/06/22 00:18:46;;;;;;;22.20;12.60;;;;;;;22.18;79.81;100485.77;107997;1271;22699;-82
2023/06/22 00:21:20;;;;;;;19.60;11.20;;;;;;;22.17;79.69;100486.01;108021;1273;23897;-82
2023/06/22 00:23:52;;;;;;;22.10;13.00;;;;;;;22.17;79.92;100489.52;108139;1278;22553;-82
2023/06/22 00:26:24;;;;;;;24.90;13.60;;;;;;;22.15;79.92;100492.58;108282;1272;25430;-82
2023/06/22 00:28:55;;;;;;;24.50;13.50;;;;;;;22.11;80.04;100494.73;108204;1278;24218;-82
2023/06/22 00:31:27;;;;;;;23.10;13.30;;;;;;;22.10;80.14;100498.75;108169;1270;22540;-82
2023/06/22 00:34:00;;;;;;;23.50;13.50;;;;;;;22.08;80.35;100503.08;108254;1271;25428;-82
2023/06/22 00:36:32;;;;;;;27.50;13.10;;;;;;;22.01;80.63;100509.86;108167;1271;22481;-82
2023/06/22 00:39:05;;;;;;;21.60;12.70;;;;;;;21.96;80.82;100512.84;108189;1274;22597;-82
2023/06/22 00:41:36;;;;;;;23.70;13.30;;;;;;;21.90;81.05;100519.38;108315;1274;25323;-82
2023/06/22 00:44:08;;;;;;;20.90;12.80;;;;;;;21.84;81.33;100524.45;108245;1272;22645;-82
2023/06/22 00:46:40;;;;;;;22.70;12.40;;;;;;;21.80;81.58;100524.83;108047;1278;22545;-84
2023/06/22 00:49:11;;;;;;;22.40;12.70;;;;;;;21.78;81.61;100526.13;104025;1274;5412965;-82
2023/06/22 00:51:47;;;;;;;20.60;12.00;;;;;;;21.79;81.66;100528.16;108252;1272;23279;-82
2023/06/22 00:54:24;;;;;;;20.00;11.20;;;;;;;21.82;81.68;100528.45;108593;1275;23315;-81
2023/06/22 00:56:57;;;;;;;21.20;11.90;;;;;;;21.84;81.68;100542.52;108819;1278;25995;-82
2023/06/22 00:59:30;;;;;;;22.50;13.20;;;;;;;21.84;81.73;100539.46;108366;1278;22548;-82
2023/06/22 01:02:04;;;;;;;22.10;12.70;;;;;;;21.84;81.72;100543.64;108224;1278;22537;-82
2023/06/22 01:04:39;;;;;;;22.60;12.80;;;;;;;21.82;81.92;100536.02;108164;1278;24203;-82
2023/06/22 01:07:22;;;;;;;23.60;12.50;;;;;;;21.77;82.16;100539.98;108154;1271;25312;-82
2023/06/22 01:10:00;;;;;;;24.60;14.70;;;;;;;21.68;82.25;100537.19;110180;1271;22175;-83
2023/06/22 01:12:38;;;;;;;24.00;13.40;;;;;;;21.60;82.58;100536.84;110197;1278;22322;-82
2023/06/22 01:15:12;;;;;;;24.40;13.80;;;;;;;21.56;82.44;100531.24;110231;1271;22206;-82
2023/06/22 01:17:46;;;;;;;25.00;14.00;;;;;;;21.56;82.55;100533.33;109360;1271;24375;-82
2023/06/22 01:20:21;;;;;;;22.40;12.50;;;;;;;21.55;82.55;100533.55;108220;1271;22614;-82
2023/06/22 01:23:19;;;;;;;22.50;12.70;;;;;;;21.54;82.59;100535.02;108086;1278;24975;-82
2023/06/22 01:26:00;;;;;;;23.40;13.10;;;;;;;21.48;82.64;100541.48;108110;1278;22648;-82
2023/06/22 01:28:44;;;;;;;21.10;12.70;;;;;;;21.42;82.72;100543.68;108169;1274;22549;-82
2023/06/22 01:31:19;;;;;;;25.20;13.80;;;;;;;21.40;82.95;100547.20;108203;1278;22492;-82
2023/06/22 01:33:55;;;;;;;23.90;12.70;;;;;;;21.35;83.09;100553.23;108284;1271;22650;-82
2023/06/22 01:36:28;;;;;;;24.80;13.50;;;;;;;21.30;83.27;100548.16;108323;1271;25300;-82
2023/06/22 01:39:03;;;;;;;22.60;13.20;;;;;;;21.25;83.45;100548.35;108247;1271;23246;-82
2023/06/22 01:41:39;;;;;;;25.70;13.70;;;;;;;21.22;83.43;100550.09;108269;1275;22555;-81
2023/06/22 01:44:11;;;;;;;23.70;13.40;;;;;;;21.22;83.50;100551.41;108036;1273;22541;-82
2023/06/22 01:46:43;;;;;;;23.80;13.00;;;;;;;21.19;83.51;100549.92;108042;1278;22565;-81
2023/06/22 01:49:20;;;;;;;21.70;12.50;;;;;;;21.16;83.78;100552.63;108258;1278;22551;-82
2023/06/22 01:51:54;;;;;;;23.30;14.10;;;;;;;21.15;83.48;100553.20;108250;1278;22471;-81
2023/06/22 01:54:24;;;;;;;25.90;13.70;;;;;;;21.13;83.38;100557.98;108219;1271;22649;-82
2023/06/22 01:56:56;;;;;;;22.20;13.40;;;;;;;21.10;83.43;100555.47;108130;1264;22520;-82
2023/06/22 01:59:32;;;;;;;24.40;13.70;;;;;;;21.07;83.58;100555.23;108241;1270;24322;-81
2023/06/22 02:02:08;;;;;;;23.40;13.20;;;;;;;21.03;83.67;100555.71;108362;1264;24240;-82
2023/06/22 02:04:48;;;;;;;27.10;13.70;;;;;;;20.98;83.62;100553.34;108226;1278;22500;-81
2023/06/22 02:07:24;;;;;;;20.80;13.00;;;;;;;20.93;83.59;100556.89;108333;1272;22530;-82
2023/06/22 02:10:03;;;;;;;23.00;13.00;;;;;;;20.89;83.78;100556.29;108329;1271;22566;-82
2023/06/22 02:12:40;;;;;;;25.50;14.00;;;;;;;20.85;83.89;100558.64;108058;1272;22532;-82
2023/06/22 02:15:14;;;;;;;22.30;12.80;;;;;;;20.83;83.92;100560.13;108157;1271;25441;-82
2023/06/22 02:17:49;;;;;;;22.20;13.00;;;;;;;20.80;84.06;100562.09;108209;1271;22523;-82
2023/06/22 02:20:21;;;;;;;24.10;13.30;;;;;;;20.78;83.95;100559.02;108252;1274;22468;-82
2023/06/22 02:22:52;;;;;;;21.90;12.00;;;;;;;20.74;84.06;100560.17;108121;1278;22662;-82
2023/06/22 02:25:23;;;;;;;24.60;12.90;;;;;;;20.70;84.00;100556.37;108135;1278;22547;-82
2023/06/22 02:27:55;;;;;;;23.20;13.00;;;;;;;20.68;84.14;100555.07;108206;1274;22643;-82
2023/06/22 02:30:26;;;;;;;23.50;12.80;;;;;;;20.64;84.03;100553.48;108140;1277;26471;-82
2023/06/22 02:32:59;;;;;;;23.30;13.20;;;;;;;20.59;84.18;100556.20;108156;1278;25233;-82
2023/06/22 02:35:35;;;;;;;22.60;13.70;;;;;;;20.55;84.33;100557.77;108184;1275;22520;-82
2023/06/22 02:38:09;;;;;;;24.30;12.60;;;;;;;20.52;84.27;100556.47;108332;1278;22483;-82
2023/06/22 02:40:40;;;;;;;24.70;13.80;;;;;;;20.49;84.57;100557.70;108138;1278;25451;-81
2023/06/22 02:43:12;;;;;;;24.50;14.30;;;;;;;20.47;84.86;100558.27;108175;1271;22489;-82
2023/06/22 02:45:42;;;;;;;24.30;13.80;;;;;;;20.44;84.74;100556.39;108119;1278;22737;-82
2023/06/22 02:48:14;;;;;;;25.00;13.40;;;;;;;20.41;84.83;100552.64;108198;1266;22539;-82
2023/06/22 02:50:46;;;;;;;23.20;13.60;;;;;;;20.38;84.99;100552.98;108213;1274;22624;-82
2023/06/22 02:53:17;;;;;;;22.80;12.40;;;;;;;20.36;85.04;100553.75;108257;1272;22562;-82
2023/06/22 02:55:49;;;;;;;24.20;12.60;;;;;;;20.34;85.00;100552.96;108064;1272;23496;-82
2023/06/22 02:58:21;;;;;;;23.90;12.80;;;;;;;20.30;85.04;100553.42;108244;1278;22538;-82
2023/06/22 03:00:53;;;;;;;22.80;13.50;;;;;;;20.27;85.20;100553.28;108207;1274;22577;-82
2023/06/22 03:03:26;;;;;;;24.00;13.80;;;;;;;20.23;85.26;100559.66;108232;1271;22607;-82
2023/06/22 03:05:57;;;;;;;25.00;14.80;;;;;;;20.21;85.37;100558.66;108208;1278;25302;-82
2023/06/22 03:08:28;;;;;;;25.80;14.30;;;;;;;20.18;85.58;100562.23;108203;1271;23350;-82
2023/06/22 03:11:00;;;;;;;22.20;13.80;;;;;;;20.15;85.70;100561.13;108127;1278;26562;-82
2023/06/22 03:13:32;;;;;;;23.20;13.10;;;;;;;20.15;85.88;100554.81;108059;1278;24238;-81
2023/06/22 03:16:03;;;;;;;22.70;13.10;;;;;;;20.15;85.98;100559.91;108240;1277;22549;-81
2023/06/22 03:18:34;;;;;;;25.40;14.10;;;;;;;20.13;86.10;100561.02;108164;1270;22678;-82
2023/06/22 03:21:05;;;;;;;22.00;13.50;;;;;;;20.13;86.49;100569.64;108213;1272;22482;-82
2023/06/22 03:23:37;;;;;;;25.70;15.20;;;;;;;20.13;87.15;100572.73;108159;1274;23013;-82
2023/06/22 03:26:08;;;;;;;27.50;15.30;;;;;;;20.10;87.42;100575.45;108202;1271;22546;-82
2023/06/22 03:28:40;;;;;;;24.30;14.10;;;;;;;20.08;87.63;100583.52;108156;1278;22550;-82
2023/06/22 03:31:12;;;;;;;24.30;13.60;;;;;;;20.04;87.93;100587.48;108191;1278;23736;-82
2023/06/22 03:33:43;;;;;;;28.30;14.20;;;;;;;20.02;88.12;100592.61;108140;1271;22639;-82
2023/06/22 03:36:13;;;;;;;24.40;14.50;;;;;;;20.01;88.07;100599.63;108092;1278;22628;-82
2023/06/22 03:38:45;;;;;;;24.30;13.30;;;;;;;20.03;88.04;100597.09;108162;1267;22523;-82
2023/06/22 03:41:17;;;;;;;23.00;13.40;;;;;;;20.07;88.03;100596.71;108194;1271;25415;-82
2023/06/22 03:43:48;;;;;;;27.20;14.50;;;;;;;20.08;88.13;100599.44;108199;1278;23405;-82
2023/06/22 03:46:20;;;;;;;23.20;13.50;;;;;;;20.10;88.45;100603.33;108289;1271;23037;-82
2023/06/22 03:48:51;;;;;;;24.60;14.60;;;;;;;20.12;88.50;100604.07;108304;1275;22556;-82
2023/06/22 03:51:22;;;;;;;22.90;13.70;;;;;;;20.14;88.56;100611.52;108224;1278;22573;-82
2023/06/22 03:53:54;;;;;;;22.80;13.30;;;;;;;20.18;88.68;100615.48;108082;1277;22528;-81
2023/06/22 03:56:24;;;;;;;23.10;13.60;;;;;;;20.23;88.80;100606.98;108037;1274;22530;-81
2023/06/22 03:58:56;;;;;;;24.60;13.40;;;;;;;20.28;88.83;100612.80;108011;1278;22543;-82
2023/06/22 04:01:27;;;;;;;24.90;14.20;;;;;;;20.32;88.94;100617.64;108000;1267;22541;-82
2023/06/22 04:03:58;;;;;;;23.20;13.10;;;;;;;20.35;89.20;100623.88;108210;1278;22751;-82
2023/06/22 04:06:29;;;;;;;21.50;12.80;;;;;;;20.39;89.08;100621.08;108260;1268;22524;-84
2023/06/22 04:09:00;;;;;;;26.00;14.30;;;;;;;20.44;88.86;100623.33;108317;1271;25428;-82
2023/06/22 04:11:31;;;;;;;32.00;15.40;;;;;;;20.48;89.28;100625.23;108205;1274;22487;-81
2023/06/22 04:14:03;;;;;;;26.70;14.20;;;;;;;20.48;89.10;100630.74;108192;1272;22830;-79
2023/06/22 04:16:34;;;;;;;27.00;12.50;;;;;;;20.51;89.09;100626.71;108264;1278;25281;-79
2023/06/22 04:19:04;;;;;;;26.00;14.20;;;;;;;20.57;89.47;100626.83;108241;1274;22586;-79
2023/06/22 04:21:37;;;;;;;28.20;14.50;;;;;;;20.60;89.61;100628.66;108578;1275;22545;-79
2023/06/22 04:24:10;;;;;;;28.40;15.40;;;;;;;20.63;89.50;100628.08;108599;1256;22501;-80
2023/06/22 04:26:42;;;;;;;27.40;16.30;;;;;;;20.70;89.53;100635.35;108319;1271;22528;-79
2023/06/22 04:29:13;;;;;;;28.60;14.20;;;;;;;20.77;89.72;100642.14;108238;1272;24281;-79
2023/06/22 04:31:44;;;;;;;25.80;14.50;;;;;;;20.83;89.77;100641.12;108198;1274;26598;-79
2023/06/22 04:34:16;;;;;;;24.00;14.60;;;;;;;20.89;90.01;100645.36;108099;1275;25903;-79
2023/06/22 04:36:47;;;;;;;26.60;15.40;;;;;;;20.92;89.87;100644.06;108080;1272;22550;-79
2023/06/22 04:39:18;;;;;;;28.30;16.90;;;;;;;20.96;89.63;100645.20;108200;1278;25500;-78
2023/06/22 04:41:51;;;;;;;31.40;17.50;;;;;;;21.01;89.51;100649.75;107702;1273;22552;-81
2023/06/22 04:44:24;;;;;;;28.20;18.20;;;;;;;21.06;89.42;100649.63;108280;1271;22528;-79
2023/06/22 04:46:59;;;;;;;25.00;16.40;;;;;;;21.13;89.34;100645.54;108151;1278;22543;-80
2023/06/22 04:49:34;;;;;;;35.50;17.40;;;;;;;21.18;89.55;100649.58;108245;1278;22717;-79
2023/06/22 04:52:07;;;;;;;30.30;16.90;;;;;;;21.20;89.32;100653.27;108113;1271;22572;-79
2023/06/22 04:54:47;;;;;;;31.90;19.30;;;;;;;21.26;89.64;100652.59;108288;1273;22541;-79
2023/06/22 04:57:17;;;;;;;;;;;;;;;21.33;89.40;100654.27;108213;1271;24237;-79
2023/06/22 04:59:48;;;;;;;29.50;17.10;;;;;;;21.40;89.35;100657.78;108289;1278;23336;-82
2023/06/22 05:02:19;;;;;;;29.00;18.80;;;;;;;21.49;89.51;100659.02;108063;1272;24805;-82
2023/06/22 05:04:51;;;;;;;28.20;18.40;;;;;;;21.55;89.36;100656.67;108203;1270;23003;-82
2023/06/22 05:07:26;;;;;;;32.60;18.00;;;;;;;21.64;89.39;100661.56;108235;1276;22516;-82
2023/06/22 05:09:57;;;;;;;29.10;17.00;;;;;;;21.73;89.13;100665.33;108220;1278;22525;-82
2023/06/22 05:12:30;;;;;;;30.70;18.60;;;;;;;21.85;88.94;100664.30;108188;1278;24313;-82
2023/06/22 05:15:01;;;;;;;30.90;19.00;;;;;;;21.94;88.76;100665.87;108383;1276;22537;-82
2023/06/22 05:17:33;;;;;;;32.90;18.90;;;;;;;22.02;88.75;100656.79;108265;1278;22619;-82
2023/06/22 05:20:08;;;;;;;28.00;16.90;;;;;;;22.09;88.57;100655.73;108291;1272;22507;-82
2023/06/22 05:22:44;;;;;;;27.40;17.70;;;;;;;22.10;88.39;100652.89;108377;1272;22524;-82
2023/06/22 05:25:16;;;;;;;26.80;16.70;;;;;;;22.16;88.27;100659.96;108383;1274;22693;-82
2023/06/22 05:27:47;;;;;;;32.50;19.20;;;;;;;22.17;88.05;100663.29;108329;1274;22544;-82
2023/06/22 05:30:19;;;;;;;28.40;16.80;;;;;;;22.26;87.98;100658.14;108300;1275;25291;-82
2023/06/22 05:32:52;;;;;;;31.30;16.80;;;;;;;22.36;87.67;100653.42;108111;1274;24203;-82
2023/06/22 05:35:23;;;;;;;28.60;16.50;;;;;;;22.48;87.20;100656.23;108032;1272;22482;-79
2023/06/22 05:37:55;;;;;;;28.20;16.80;;;;;;;22.61;87.00;100652.71;108013;1278;25298;-79
2023/06/22 05:40:27;;;;;;;24.10;14.30;;;;;;;22.72;86.48;100658.81;108155;1272;23160;-79
2023/06/22 05:42:57;;;;;;;26.60;13.20;;;;;;;22.84;85.57;100657.13;108156;1278;25428;-79
2023/06/22 05:45:29;;;;;;;22.90;12.60;;;;;;;22.96;84.96;100657.49;108042;1271;22533;-79
2023/06/22 05:48:00;;;;;;;24.50;12.60;;;;;;;23.04;84.18;100657.49;108022;1278;25412;-79
2023/06/22 05:50:31;;;;;;;26.40;13.50;;;;;;;23.14;84.26;100658.48;108143;1276;22560;-79
2023/06/22 05:53:02;;;;;;;18.60;10.40;;;;;;;23.24;83.70;100663.71;108177;1272;22544;-79
2023/06/22 05:55:33;;;;;;;19.60;10.90;;;;;;;23.33;83.03;100661.20;108117;1278;23660;-79
2023/06/22 05:58:05;;;;;;;19.10;10.90;;;;;;;23.39;81.71;100661.52;108130;1278;22602;-79
2023/06/22 06:00:36;;;;;;;20.10;11.00;;;;;;;23.42;81.59;100662.13;108058;1275;22539;-81
2023/06/22 06:03:08;;;;;;;24.90;11.50;;;;;;;23.49;81.07;100665.25;107885;1278;24704;-78
2023/06/22 06:05:39;;;;;;;20.50;11.10;;;;;;;23.51;80.56;100670.96;107572;1272;22595;-78
2023/06/22 06:08:11;;;;;;;19.80;12.00;;;;;;;23.57;80.53;100672.03;107763;1274;22617;-79
2023/06/22 06:10:41;;;;;;;24.20;12.40;;;;;;;23.60;80.13;100669.31;108281;1278;22655;-80
2023/06/22 06:13:13;;;;;;;23.80;12.00;;;;;;;23.63;79.54;100660.63;108223;1268;22544;-80
2023/06/22 06:15:44;;;;;;;22.10;13.00;;;;;;;23.64;79.45;100664.73;108252;1274;25251;-80
2023/06/22 06:18:14;;;;;;;28.50;13.60;;;;;;;23.69;79.27;100666.55;108200;1275;22524;-80
2023/06/22 06:20:46;;;;;;;21.60;12.30;;;;;;;23.75;78.71;100666.86;108052;1272;25247;-80
2023/06/22 06:23:16;;;;;;;20.10;11.20;;;;;;;23.80;78.16;100667.30;108110;1272;22636;-80
2023/06/22 06:25:47;;;;;;;25.10;11.20;;;;;;;23.82;77.90;100671.58;108054;1278;25422;-80
2023/06/22 06:28:18;;;;;;;22.60;12.50;;;;;;;23.85;77.31;100679.42;108052;1274;26640;-77
2023/06/22 06:30:51;;;;;;;21.00;11.90;;;;;;;23.83;76.99;100679.48;107527;1274;22520;-79
2023/06/22 06:33:23;;;;;;;21.20;10.70;;;;;;;23.82;76.42;100682.56;107814;1271;22562;-79
2023/06/22 06:35:55;;;;;;;20.80;11.40;;;;;;;23.85;76.84;100687.83;107980;1275;24326;-80
2023/06/22 06:38:28;;;;;;;18.70;10.40;;;;;;;23.95;76.39;100686.82;108040;1272;22768;-80
2023/06/22 06:40:59;;;;;;;21.50;11.00;;;;;;;24.01;76.45;100686.64;108106;1274;22570;-79
2023/06/22 06:43:30;;;;;;;19.80;10.20;;;;;;;24.06;75.70;100684.59;108026;1278;22566;-80
2023/06/22 06:46:03;;;;;;;21.20;11.30;;;;;;;24.09;75.60;100686.42;108027;1276;25425;-79
2023/06/22 06:48:36;;;;;;;21.90;10.30;;;;;;;24.13;75.50;100688.09;108029;1278;22476;-80
2023/06/22 06:51:09;;;;;;;20.70;10.30;;;;;;;24.21;75.20;100688.73;108023;1278;22691;-80
2023/06/22 06:53:42;;;;;;;19.80;11.40;;;;;;;24.28;75.05;100687.80;108051;1274;25369;-79
2023/06/22 06:56:13;;;;;;;24.00;13.40;;;;;;;24.36;74.83;100684.76;108132;1274;22583;-80
2023/06/22 06:58:45;;;;;;;19.60;10.40;;;;;;;24.41;74.46;100685.96;107990;1278;22523;-79
2023/06/22 07:01:16;;;;;;;21.20;11.60;;;;;;;24.46;74.39;100688.45;108045;1274;22632;-79
2023/06/22 07:03:47;;;;;;;19.80;11.40;;;;;;;24.48;74.01;100690.40;107977;1274;25422;-79
2023/06/22 07:06:18;;;;;;;19.50;11.00;;;;;;;24.52;74.18;100692.63;108045;1277;24274;-80
2023/06/22 07:08:49;;;;;;;21.50;10.40;;;;;;;24.58;74.12;100695.38;108039;1275;25425;-79
2023/06/22 07:11:21;;;;;;;20.60;10.70;;;;;;;24.68;74.22;100700.61;108123;1272;22523;-80
2023/06/22 07:14:15;;;;;;;21.90;11.40;;;;;;;24.77;73.60;100699.37;108008;1278;23232;-80
2023/06/22 07:16:46;;;;;;;20.40;11.60;;;;;;;24.83;73.17;100699.54;107985;1271;25419;-80
2023/06/22 07:19:25;;;;;;;21.00;10.60;;;;;;;24.86;73.09;100703.85;108010;1272;22570;-80
2023/06/22 07:21:56;;;;;;;22.70;11.10;;;;;;;24.91;72.90;100706.56;107952;1278;22539;-80
2023/06/22 07:24:27;;;;;;;19.80;11.00;;;;;;;24.93;72.59;100708.09;108088;1268;22514;-80
2023/06/22 07:26:58;;;;;;;20.20;11.00;;;;;;;24.88;72.20;100716.34;108084;1277;24286;-80
2023/06/22 07:29:42;;;;;;;;;;;;;;;;;;;;;
2023/06/22 07:32:13;;;;;;;17.00;9.50;;;;;;;24.97;72.14;100716.48;108186;1272;22564;-80
2023/06/22 07:34:45;;;;;;;18.00;9.30;;;;;;;25.05;72.33;100716.34;108097;1278;25428;-80
2023/06/22 07:37:16;;;;;;;19.80;9.80;;;;;;;25.12;71.59;100720.88;108004;1277;22525;-80
2023/06/22 07:39:47;;;;;;;18.80;9.70;;;;;;;25.17;71.34;100721.38;108002;1274;22561;-79
2023/06/22 07:42:18;;;;;;;17.30;8.90;;;;;;;25.22;71.00;100718.80;107924;1276;22567;-82
2023/06/22 07:44:50;;;;;;;20.30;8.80;;;;;;;25.28;70.40;100715.26;108389;1277;22485;-83
2023/06/22 07:47:27;;;;;;;19.10;10.10;;;;;;;25.33;70.35;100712.42;108535;1271;22565;-83
2023/06/22 07:50:01;;;;;;;17.90;9.00;;;;;;;25.38;69.91;100706.06;110251;1278;22275;-84
2023/06/22 07:52:32;;;;;;;17.40;9.50;;;;;;;25.43;69.86;100704.27;110179;1278;22356;-84
2023/06/22 07:55:05;;;;;;;15.10;8.60;;;;;;;25.50;69.81;100706.95;108507;1276;22556;-81
2023/06/22 07:57:36;;;;;;;16.20;8.90;;;;;;;25.56;69.77;100707.99;108299;1278;22649;-84
2023/06/22 08:00:13;;;;;;;18.30;9.00;;;;;;;25.55;69.10;100709.55;108174;1276;22577;-79
2023/06/22 08:02:47;;;;;;;19.40;9.80;;;;;;;25.48;68.98;100710.33;108190;1277;24229;-79
2023/06/22 08:05:18;;;;;;;18.00;9.40;;;;;;;25.45;68.73;100711.89;107499;1272;22547;-79
2023/06/22 08:07:53;;;;;;;17.30;8.80;;;;;;;25.46;68.73;100708.27;107499;1278;22547;-78
2023/06/22 08:10:24;;;;;;;18.10;9.60;;;;;;;25.52;68.69;100701.32;107541;1276;22636;-79
2023/06/22 08:12:54;;;;;;;20.90;11.30;;;;;;;25.58;68.71;100693.33;107489;1278;22637;-77
2023/06/22 08:15:28;;;;;;;18.10;8.90;;;;;;;25.58;68.30;100697.58;108294;1278;22488;-80
2023/06/22 08:18:00;;;;;;;19.10;9.40;;;;;;;25.62;68.33;100697.66;108466;1277;22563;-78
2023/06/22 08:20:31;;;;;;;16.10;10.00;;;;;;;25.67;67.98;100696.89;107712;1273;22523;-78
2023/06/22 08:23:05;;;;;;;14.30;7.90;;;;;;;25.73;68.04;100698.48;107695;1276;22552;-79
2023/06/22 08:25:37;;;;;;;15.20;8.20;;;;;;;25.82;67.59;100693.89;107852;1278;22668;-79
2023/06/22 08:28:09;;;;;;;18.50;9.50;;;;;;;25.91;67.40;100694.73;107999;1272;22486;-80
2023/06/22 08:30:40;;;;;;;18.40;10.00;;;;;;;25.98;67.00;100694.99;108047;1278;22589;-82
2023/06/22 08:33:11;;;;;;;18.30;9.30;;;;;;;26.00;67.15;100692.32;108195;1278;22562;-82
2023/06/22 08:35:42;;;;;;;15.30;8.50;;;;;;;26.09;67.64;100689.83;108125;1272;25417;-83
2023/06/22 08:38:15;;;;;;;21.40;8.70;;;;;;;26.19;67.47;100684.32;108157;1272;22579;-79
2023/06/22 08:40:46;;;;;;;15.90;9.00;;;;;;;26.26;65.94;100675.73;108065;1278;22524;-82
2023/06/22 08:43:18;;;;;;;18.30;9.50;;;;;;;26.25;66.34;100671.05;108139;1273;24939;-81
2023/06/22 08:45:49;;;;;;;20.00;9.70;;;;;;;26.34;66.01;100665.13;108136;1276;23065;-81
2023/06/22 08:48:21;;;;;;;19.00;10.10;;;;;;;26.40;65.76;100662.35;108124;1278;23671;-80
2023/06/22 08:50:53;;;;;;;18.20;10.10;;;;;;;26.41;65.32;100660.28;108076;1260;22834;-80
2023/06/22 08:53:24;;;;;;;16.00;7.80;;;;;;;26.39;65.19;100661.52;108029;1276;23282;-80
2023/06/22 08:55:55;;;;;;;18.80;9.00;;;;;;;26.40;64.45;100658.11;107465;1278;23161;-80
2023/06/22 08:58:26;;;;;;;17.20;8.90;;;;;;;26.36;64.37;100653.66;107566;1278;22543;-80
2023/06/22 09:00:56;;;;;;;16.30;7.90;;;;;;;26.40;64.35;100657.50;107587;1276;23274;-81
2023/06/22 09:03:28;;;;;;;14.60;7.00;;;;;;;26.42;64.11;100656.50;107558;1278;22482;-80
2023/06/22 09:05:59;;;;;;;13.60;7.00;;;;;;;26.49;64.44;100657.23;107551;1275;22516;-80
2023/06/22 09:08:30;;;;;;;13.90;7.60;;;;;;;26.55;64.08;100658.23;107516;1268;22527;-80
2023/06/22 09:11:01;;;;;;;13.60;6.40;;;;;;;26.68;64.42;100657.63;107576;1276;22741;-80
2023/06/22 09:13:34;;;;;;;14.40;7.00;;;;;;;26.79;63.46;100654.21;107556;1272;25249;-80
2023/06/22 09:16:06;;;;;;;11.90;6.40;;;;;;;26.81;63.34;100660.87;108139;1278;22529;-80
2023/06/22 09:18:38;;;;;;;15.60;6.90;;;;;;;26.85;62.34;100659.67;108081;1278;24978;-81
2023/06/22 09:21:10;;;;;;;14.80;7.20;;;;;;;26.89;61.65;100658.27;108171;1278;22524;-81
2023/06/22 09:23:41;;;;;;;12.60;6.20;;;;;;;26.87;61.51;100661.80;108159;1278;22621;-82
2023/06/22 09:26:13;;;;;;;15.50;6.30;;;;;;;26.83;60.64;100666.21;108029;1274;22643;-82
2023/06/22 09:28:45;;;;;;;13.20;5.20;;;;;;;26.75;59.74;100667.92;107920;1275;25413;-82
2023/06/22 09:31:16;;;;;;;12.90;5.90;;;;;;;26.67;59.88;100668.42;108151;1273;22741;-80
2023/06/22 09:33:50;;;;;;;10.30;5.10;;;;;;;26.71;59.93;100668.37;108162;1275;22543;-80
2023/06/22 09:36:21;;;;;;;13.60;6.20;;;;;;;26.78;59.24;100668.91;108125;1278;23336;-81
2023/06/22 09:38:55;;;;;;;14.70;7.20;;;;;;;26.83;58.88;100664.80;108058;1274;25399;-80
2023/06/22 09:41:26;;;;;;;15.60;7.20;;;;;;;26.87;58.69;100662.80;108003;1256;24107;-80
2023/06/22 09:43:57;;;;;;;14.90;5.80;;;;;;;26.93;59.11;100663.66;108279;1277;22643;-80
2023/06/22 09:46:28;;;;;;;12.10;5.10;;;;;;;27.02;58.78;100663.42;108438;1275;22548;-82
2023/06/22 09:48:59;;;;;;;14.90;6.10;;;;;;;27.07;57.96;100661.69;108239;1278;22577;-85
2023/06/22 09:51:30;;;;;;;11.60;5.60;;;;;;;27.02;57.20;100657.67;108573;1278;22953;-88
2023/06/22 09:54:01;;;;;;;13.30;6.10;;;;;;;27.01;57.45;100656.18;108854;1274;22537;-89
2023/06/22 09:56:32;;;;;;;14.40;5.60;;;;;;;27.08;57.17;100652.92;108993;1275;22567;-88
2023/06/22 09:59:03;;;;;;;18.50;7.20;;;;;;;27.14;57.04;100656.70;108966;1272;22894;-88
2023/06/22 10:01:34;;;;;;;13.60;6.60;;;;;;;27.16;56.47;100662.52;108969;1278;22520;-88
2023/06/22 10:04:05;;;;;;;12.70;5.70;;;;;;;27.14;56.56;100651.76;108844;1272;22587;-83
2023/06/22 10:06:36;;;;;;;12.40;6.10;;;;;;;27.25;57.01;100647.64;108128;1272;23151;-82
2023/06/22 10:09:07;;;;;;;13.30;6.20;;;;;;;27.36;56.53;100655.29;108225;1273;23270;-83
2023/06/22 10:11:37;;;;;;;12.60;6.00;;;;;;;27.42;56.44;100647.23;108283;1276;25670;-83
2023/06/22 10:14:08;;;;;;;11.40;5.00;;;;;;;27.50;56.53;100655.14;108186;1271;22524;-82
2023/06/22 10:16:40;;;;;;;12.80;6.20;;;;;;;27.58;56.04;100655.21;108103;1278;22663;-82
2023/06/22 10:19:11;;;;;;;10.50;5.20;;;;;;;27.63;55.62;100656.50;108050;1270;23292;-82
2023/06/22 10:21:42;;;;;;;15.20;6.00;;;;;;;27.62;55.42;100654.84;107998;1271;22562;-83
2023/06/22 10:24:13;;;;;;;11.40;5.40;;;;;;;27.59;54.83;100647.86;108019;1278;22538;-83
2023/06/22 10:26:44;;;;;;;11.40;5.90;;;;;;;27.49;54.85;100645.73;108124;1273;22498;-83
2023/06/22 10:29:16;;;;;;;12.90;6.10;;;;;;;27.50;54.93;100641.64;108192;1278;24199;-83
2023/06/22 10:31:47;;;;;;;14.20;5.70;;;;;;;27.52;54.25;100635.49;108238;1272;25444;-83
2023/06/22 10:34:17;;;;;;;11.90;5.10;;;;;;;27.48;54.38;100632.98;108130;1276;22470;-83
2023/06/22 10:36:49;;;;;;;11.30;5.70;;;;;;;27.51;54.55;100626.94;108121;1274;22515;-83
2023/06/22 10:39:20;;;;;;;11.10;4.90;;;;;;;27.61;54.39;100624.24;108205;1276;22627;-83
2023/06/22 10:41:50;;;;;;;13.70;5.10;;;;;;;27.67;54.05;100619.70;108089;1274;22531;-83
2023/06/22 10:44:21;;;;;;;11.40;4.20;;;;;;;27.72;53.87;100617.96;108160;1272;26548;-83
2023/06/22 10:46:53;;;;;;;11.30;5.10;;;;;;;27.73;53.06;100615.20;108208;1274;22619;-82
2023/06/22 10:49:24;;;;;;;12.20;5.50;;;;;;;27.74;53.36;100608.08;107980;1276;24404;-83
2023/06/22 10:51:55;;;;;;;15.70;4.70;;;;;;;27.81;53.25;100605.52;107983;1271;22526;-83
2023/06/22 10:54:25;;;;;;;10.30;5.00;;;;;;;27.83;53.06;100600.96;108127;1273;22553;-82
2023/06/22 10:56:56;;;;;;;10.90;4.70;;;;;;;27.86;52.96;100597.23;108119;1274;22596;-83
2023/06/22 10:59:28;;;;;;;12.10;4.10;;;;;;;27.89;52.98;100600.13;108188;1276;22553;-83
2023/06/22 11:01:59;;;;;;;10.50;5.10;;;;;;;27.91;52.58;100602.35;108166;1278;22528;-82
2023/06/22 11:04:30;;;;;;;8.80;4.20;;;;;;;27.92;51.94;100604.02;108109;1278;24943;-82
2023/06/22 11:07:01;;;;;;;11.70;5.00;;;;;;;27.83;51.64;100597.95;108222;1270;22523;-83
2023/06/22 11:09:32;;;;;;;12.80;4.40;;;;;;;27.77;51.84;100598.20;108753;1272;22542;-83
2023/06/22 11:12:03;;;;;;;12.80;4.90;;;;;;;27.76;50.96;100596.50;108590;1274;24222;-83
2023/06/22 11:14:35;;;;;;;12.60;4.40;;;;;;;27.75;51.46;100593.86;108213;1272;25444;-83
2023/06/22 11:17:06;;;;;;;11.30;4.70;;;;;;;27.73;50.72;100589.45;108127;1276;24231;-83
2023/06/22 11:19:37;;;;;;;10.00;4.50;;;;;;;27.66;50.59;100589.27;108172;1270;23773;-82
2023/06/22 11:22:08;;;;;;;9.60;4.00;;;;;;;27.70;51.00;100589.65;108136;1270;22619;-82
2023/06/22 11:24:39;;;;;;;10.40;4.60;;;;;;;27.81;50.96;100590.05;108091;1278;24268;-82
2023/06/22 11:27:11;;;;;;;10.80;4.40;;;;;;;27.86;50.89;100589.06;108187;1278;22556;-82
2023/06/22 11:29:42;;;;;;;10.60;4.50;;;;;;;27.93;50.57;100585.54;108178;1264;22820;-82